Time;durP1;ratioP1;P1;durP2;ratioP2;P2;SDS_P1;SDS_P2;PMS_P1;PMS_P2;Temp;Humidity;BMP_temperature;BMP_pressure;BME280_temperature;BME280_humidity;BME280_pressure;Samples;Min_cycle;Max_cycle;Signal;HPM_P1;HPM_P2
2021/10/11 16:24:07;;;;;;;;;;;21.80;99.90;;;;;;2627270;38;27645;-75
2021/10/11 16:26:36;;;;;;;;;;;20.80;99.90;;;;;;2628821;46;20480;-74
2021/10/11 16:29:05;;;;;;;;;;;20.80;99.90;;;;;;2627952;54;19946;-74
2021/10/11 16:31:34;;;;;;;;;;;20.70;99.90;;;;;;2678609;36;19976;-74
2021/10/11 16:34:03;;;;;;;;;;;20.70;99.90;;;;;;2624432;38;20399;-74
2021/10/11 16:36:32;;;;;;;;;;;20.60;99.90;;;;;;2622006;46;20082;-64
2021/10/11 16:39:00;;;;;;;;;;;20.60;99.90;;;;;;2622469;54;20015;-64
2021/10/11 16:41:32;;;;;;;;;;;20.60;99.90;;;;;;2621142;54;20045;-63
2021/10/11 16:44:01;;;;;;;;;;;20.50;99.90;;;;;;2621628;54;19946;-64
2021/10/11 16:46:30;;;;;;;;;;;20.50;99.90;;;;;;2621255;46;20038;-64
2021/10/11 16:48:58;;;;;;;;;;;20.50;99.90;;;;;;2622154;46;19958;-63
2021/10/11 16:51:27;;;;;;;;;;;20.40;99.90;;;;;;2622195;54;19950;-64
2021/10/11 16:56:40;;;;;;;;;;;20.40;99.90;;;;;;2622260;38;20362;-68
2021/10/11 16:59:11;;;;;;;;;;;20.40;99.90;;;;;;2711609;36;86321;-65
2021/10/11 17:16:21;;;;;;;;;;;20.50;99.90;;;;;;2618399;54;19943;-58
2021/10/11 17:18:49;;;;;;;;;;;20.30;99.90;;;;;;2618834;54;19969;-59
2021/10/11 17:21:18;;;;;;;;;;;20.30;99.90;;;;;;2621270;46;20462;-62
2021/10/11 17:23:47;;;;;;;;;;;20.30;99.90;;;;;;2620733;54;19946;-63
2021/10/11 17:26:16;;;;;;;;;;;20.30;99.90;;;;;;2621111;54;19946;-65
2021/10/11 17:28:46;;;;;;;;;;;20.20;99.90;;;;;;2622378;54;19946;-63
2021/10/11 17:31:15;;;;;;;;;;;20.20;99.90;;;;;;2621716;54;19993;-62
2021/10/11 17:33:46;;;;;;;;;;;20.20;99.90;;;;;;2673845;36;19950;-63
2021/10/11 17:36:16;;;;;;;;;;;20.20;99.90;;;;;;2622448;38;20349;-65
2021/10/11 17:38:45;;;;;;;;;;;20.20;99.90;;;;;;2622894;31;20450;-62
2021/10/11 17:41:14;;;;;;;;;;;20.20;99.90;;;;;;2622822;54;19946;-63
2021/10/11 17:43:42;;;;;;;;;;;20.20;99.90;;;;;;2622224;54;19950;-62
2021/10/11 17:46:12;;;;;;;;;;;20.20;99.90;;;;;;2622603;46;19950;-62
2021/10/11 17:48:41;;;;;;;;;;;20.20;99.90;;;;;;2622758;38;20346;-63
2021/10/11 17:51:13;;;;;;;;;;;20.20;99.90;;;;;;2621970;46;19952;-64
2021/10/11 17:53:43;;;;;;;;;;;20.10;99.90;;;;;;2622162;54;19947;-64
2021/10/11 17:56:12;;;;;;;;;;;20.20;99.90;;;;;;2621299;54;20441;-61
2021/10/11 17:58:41;;;;;;;;;;;20.10;99.90;;;;;;2620514;54;20445;-62
2021/10/11 18:01:19;;;;;;;;;;;20.10;99.90;;;;;;2623103;38;20337;-69
2021/10/11 18:03:48;;;;;;;;;;;20.10;99.90;;;;;;2622393;46;19992;-64
2021/10/11 18:06:20;;;;;;;;;;;20.10;99.90;;;;;;2621326;46;19939;-64
2021/10/11 18:08:48;;;;;;;;;;;20.10;99.90;;;;;;2621034;54;20073;-64
2021/10/11 18:11:17;;;;;;;;;;;20.10;99.90;;;;;;2619412;54;20060;-62
2021/10/11 18:13:46;;;;;;;;;;;20.10;99.90;;;;;;2617023;54;20069;-65
2021/10/11 18:16:16;;;;;;;;;;;20.10;99.90;;;;;;2617923;54;19943;-62
2021/10/11 18:18:45;;;;;;;;;;;20.10;99.90;;;;;;2618709;54;20074;-64
2021/10/11 18:21:14;;;;;;;;;;;20.00;99.90;;;;;;2622392;46;19974;-61
2021/10/11 18:23:46;;;;;;;;;;;20.00;99.90;;;;;;2620699;54;19951;-64
2021/10/11 18:26:14;;;;;;;;;;;20.10;99.90;;;;;;2619650;54;19957;-63
2021/10/11 18:28:43;;;;;;;;;;;20.10;99.90;;;;;;2619504;47;19946;-70
2021/10/11 18:31:12;;;;;;;;;;;20.00;99.90;;;;;;2616717;46;20037;-65
2021/10/11 18:33:41;;;;;;;;;;;20.00;99.90;;;;;;2617048;54;19955;-65
2021/10/11 18:36:10;;;;;;;;;;;20.00;99.90;;;;;;2617367;46;19962;-63
2021/10/11 18:38:39;;;;;;;;;;;20.00;99.90;;;;;;2617699;47;19957;-65
2021/10/11 18:41:11;;;;;;;;;;;20.00;99.90;;;;;;2616538;54;19949;-63
2021/10/11 18:43:40;;;;;;;;;;;20.10;99.90;;;;;;2617026;46;19957;-61
2021/10/11 18:46:08;;;;;;;;;;;20.10;99.90;;;;;;2617305;54;19947;-66
2021/10/11 18:48:39;;;;;;;;;;;20.00;99.90;;;;;;2616749;47;19951;-65
2021/10/11 18:51:08;;;;;;;;;;;20.00;99.90;;;;;;2617000;54;19954;-67
2021/10/11 18:53:37;;;;;;;;;;;20.00;99.90;;;;;;2617477;46;20399;-62
2021/10/11 18:56:06;;;;;;;;;;;20.00;99.90;;;;;;2617394;31;20414;-65
2021/10/11 18:58:38;;;;;;;;;;;20.00;99.90;;;;;;2616670;46;19950;-66
2021/10/11 19:01:07;;;;;;;;;;;20.00;99.90;;;;;;2616753;54;20074;-64
2021/10/11 19:03:36;;;;;;;;;;;20.00;99.90;;;;;;2617950;54;19943;-63
2021/10/11 19:06:10;;;;;;;;;;;20.00;99.90;;;;;;2617259;54;19942;-62
2021/10/11 19:08:39;;;;;;;;;;;20.00;99.90;;;;;;2618452;39;20396;-63
2021/10/11 19:11:10;;;;;;;;;;;20.00;99.90;;;;;;2616945;54;19945;-68
2021/10/11 19:13:45;;;;;;;;;;;20.00;99.90;;;;;;2617462;54;20449;-64
2021/10/11 19:16:17;;;;;;;;;;;20.00;99.90;;;;;;2616990;54;19948;-64
2021/10/11 19:18:46;;;;;;;;;;;20.00;99.90;;;;;;2617831;54;19982;-65
2021/10/11 19:21:15;;;;;;;;;;;20.00;99.90;;;;;;2617222;31;20430;-64
2021/10/11 19:23:44;;;;;;;;;;;19.90;99.90;;;;;;2616700;52;19957;-65
2021/10/11 19:26:13;;;;;;;;;;;19.90;99.90;;;;;;2616831;54;19953;-65
2021/10/11 19:28:45;;;;;;;;;;;19.90;99.90;;;;;;2616637;54;19935;-61
2021/10/11 19:31:14;;;;;;;;;;;19.90;99.90;;;;;;2616376;54;19954;-62
2021/10/11 19:33:43;;;;;;;;;;;19.90;99.90;;;;;;2616850;54;19954;-63
2021/10/11 19:36:13;;;;;;;;;;;19.90;99.90;;;;;;2616919;46;20038;-63
2021/10/11 19:38:42;;;;;;;;;;;19.90;99.90;;;;;;2617124;54;19987;-63
2021/10/11 19:41:13;;;;;;;;;;;19.90;99.90;;;;;;2616330;47;19946;-60
2021/10/11 19:43:41;;;;;;;;;;;19.90;99.90;;;;;;2616235;54;19978;-63
2021/10/11 19:46:13;;;;;;;;;;;19.90;99.90;;;;;;2616281;54;20430;-59
